Fishkill, New York
Current Conditions -  °F | °C
As of 3:53 AM on Friday 28 Nov 2014 (Local Time) from KPOU Reporting Station
Moderate Fog Moderate Fog  
Wind Chill: 20°   Ceiling: Unl
Heat Index: 20°   Visibility: 0.5mi
Dew Point: 18°   Wind: 0mph
Humidity: 92%   Direction: NA
Pressure: 30.07"   Gusts: NA
Location:  41.54°N, 73.9°W
Report Text: KPOU 280853Z AUTO 00000KT 1/2SM FZFG CLR M07/M08 A3007 RMK AO2 VIS 1/4V4 SLP180 I1000 I3001 T10671078 51008 TSNO
Loading
Personal Weather Stations






























Interactive Weather Map New forecast layout! Learn more

10-Day Weather Forecast

Advertisements
Track Severe Weather on mobile